createdAt,value
2023-04-15T00:02:56.303Z,5.85
2023-04-15T00:05:59.823Z,5.88
2023-04-15T00:09:02.410Z,5.87
2023-04-15T00:12:05.704Z,5.99
2023-04-15T00:15:09.200Z,5.93
2023-04-15T00:18:11.655Z,6.08
2023-04-15T00:21:13.823Z,6.11
2023-04-15T00:24:16.483Z,5.99
2023-04-15T00:27:18.632Z,5.87
2023-04-15T00:30:21.239Z,5.83
2023-04-15T00:33:23.793Z,5.93
2023-04-15T00:36:26.364Z,5.96
2023-04-15T00:39:28.679Z,5.92
2023-04-15T00:42:31.378Z,5.97
2023-04-15T00:45:34.207Z,6.02
2023-04-15T00:48:37.263Z,6.06
2023-04-15T00:51:39.488Z,6.07
2023-04-15T00:54:42.768Z,6.10
2023-04-15T00:57:45.019Z,5.96
2023-04-15T01:00:47.880Z,6.19
2023-04-15T01:03:51.212Z,6.22
2023-04-15T01:06:53.889Z,6.35
2023-04-15T01:09:56.847Z,6.34
2023-04-15T01:12:59.285Z,6.23
2023-04-15T01:16:03.066Z,6.31
2023-04-15T01:19:10.766Z,6.34
2023-04-15T01:22:13.052Z,6.31
2023-04-15T01:25:19.870Z,6.22
2023-04-15T01:28:22.248Z,6.19
2023-04-15T01:31:24.788Z,6.15
2023-04-15T01:34:27.033Z,6.22
2023-04-15T01:37:30.045Z,6.26
2023-04-15T01:40:32.414Z,6.33
2023-04-15T01:43:37.057Z,6.38
2023-04-15T01:46:39.276Z,6.41
2023-04-15T01:49:41.934Z,6.33
2023-04-15T01:52:44.059Z,6.38
2023-04-15T01:55:46.852Z,6.39
2023-04-15T01:58:50.359Z,6.42
2023-04-15T02:01:52.844Z,6.44
2023-04-15T02:04:55.692Z,6.47
2023-04-15T02:07:57.967Z,6.49
2023-04-15T02:11:01.253Z,6.52
2023-04-15T02:14:07.092Z,6.42
2023-04-15T02:17:09.558Z,6.46
2023-04-15T02:20:12.106Z,6.41
2023-04-15T02:23:14.618Z,6.42
2023-04-15T02:26:19.456Z,6.41
2023-04-15T02:29:23.483Z,6.41
2023-04-15T02:32:25.850Z,6.42
2023-04-15T02:35:29.901Z,6.41
2023-04-15T02:38:32.633Z,6.42
2023-04-15T02:41:35.535Z,6.41
2023-04-15T02:44:38.553Z,6.47
2023-04-15T02:47:41.657Z,6.53
2023-04-15T02:50:43.999Z,6.54
2023-04-15T02:53:48.572Z,6.61
2023-04-15T02:56:51.007Z,6.58
2023-04-15T02:59:53.460Z,6.55
2023-04-15T03:03:02.135Z,6.61
2023-04-15T03:06:04.852Z,6.59
2023-04-15T03:09:07.181Z,6.55
2023-04-15T03:12:10.228Z,6.61
2023-04-15T03:15:12.647Z,6.59
2023-04-15T03:18:16.675Z,6.64
2023-04-15T03:21:20.031Z,6.68
2023-04-15T03:24:24.696Z,6.58
2023-04-15T03:27:26.962Z,6.62
2023-04-15T03:30:30.192Z,6.62
2023-04-15T03:33:32.362Z,6.61
2023-04-15T03:36:34.871Z,6.59
2023-04-15T03:39:37.045Z,6.64
2023-04-15T03:42:39.416Z,6.68
2023-04-15T03:45:41.613Z,6.72
2023-04-15T03:48:44.160Z,6.74
2023-04-15T03:51:46.636Z,6.69
2023-04-15T03:54:49.032Z,6.74
2023-04-15T03:57:51.267Z,6.69
2023-04-15T04:00:54.854Z,6.65
2023-04-15T04:03:57.484Z,6.58
2023-04-15T04:06:59.747Z,6.61
2023-04-15T04:10:03.790Z,6.68
2023-04-15T04:13:05.953Z,6.68
2023-04-15T04:16:08.551Z,6.67
2023-04-15T04:19:10.772Z,6.69
2023-04-15T04:22:13.199Z,6.74
2023-04-15T04:25:15.367Z,6.76
2023-04-15T04:28:17.824Z,6.76
2023-04-15T04:31:20.117Z,6.81
2023-04-15T04:34:22.655Z,6.88
2023-04-15T04:37:25.028Z,6.81
2023-04-15T04:40:27.484Z,6.78
2023-04-15T04:43:29.603Z,6.85
2023-04-15T04:46:32.034Z,6.85
2023-04-15T04:49:34.333Z,6.89
2023-04-15T04:52:36.963Z,6.91
2023-04-15T04:55:39.072Z,6.98
2023-04-15T04:58:41.666Z,7.00
2023-04-15T05:01:44.031Z,7.06
2023-04-15T05:04:46.470Z,7.12
2023-04-15T05:07:50.542Z,7.22
2023-04-15T05:10:53.221Z,7.31
2023-04-15T05:13:55.684Z,7.39
2023-04-15T05:16:58.400Z,7.40
2023-04-15T05:20:00.904Z,7.44
2023-04-15T05:23:03.609Z,7.53
2023-04-15T05:26:05.836Z,7.52
2023-04-15T05:29:08.266Z,7.54
2023-04-15T05:32:10.865Z,7.53
2023-04-15T05:35:13.309Z,7.56
2023-04-15T05:38:15.543Z,7.57
2023-04-15T05:41:19.818Z,7.62
2023-04-15T05:44:22.187Z,7.70
2023-04-15T05:47:24.649Z,7.64
2023-04-15T05:50:26.946Z,7.76
2023-04-15T05:53:29.348Z,7.85
2023-04-15T05:56:31.700Z,7.84
2023-04-15T05:59:34.121Z,7.85
2023-04-15T06:02:36.532Z,7.93
2023-04-15T06:05:39.050Z,7.97
2023-04-15T06:08:41.447Z,8.09
2023-04-15T06:11:43.900Z,7.98
2023-04-15T06:14:46.060Z,7.93
2023-04-15T06:17:48.639Z,7.93
2023-04-15T06:20:51.672Z,8.03
2023-04-15T06:23:54.105Z,8.04
2023-04-15T06:26:56.237Z,8.19
2023-04-15T06:29:58.904Z,8.26
2023-04-15T06:33:01.113Z,8.27
2023-04-15T06:36:03.607Z,8.30
2023-04-15T06:39:05.724Z,8.50
2023-04-15T06:42:08.368Z,8.59
2023-04-15T06:45:11.120Z,8.56
2023-04-15T06:48:13.640Z,8.60
2023-04-15T06:51:16.800Z,8.57
2023-04-15T06:54:19.235Z,8.62
2023-04-15T06:57:21.412Z,8.70
2023-04-15T07:00:23.842Z,8.77
2023-04-15T07:03:26.112Z,8.78
2023-04-15T07:06:28.557Z,8.91
2023-04-15T07:09:31.203Z,9.10
2023-04-15T07:12:33.654Z,9.20
2023-04-15T07:15:35.933Z,9.12
2023-04-15T07:18:38.493Z,9.30
2023-04-15T07:21:41.959Z,9.32
2023-04-15T07:24:44.520Z,9.47
2023-04-15T07:27:46.643Z,9.60
2023-04-15T07:30:49.121Z,9.63
2023-04-15T07:33:51.297Z,9.49
2023-04-15T07:36:53.724Z,9.57
2023-04-15T07:39:56.035Z,9.53
2023-04-15T07:42:58.634Z,9.50
2023-04-15T07:46:00.785Z,9.52
2023-04-15T07:49:03.333Z,9.62
2023-04-15T07:52:05.991Z,9.75
2023-04-15T07:55:09.504Z,10.22
2023-04-15T07:58:11.732Z,10.40
2023-04-15T08:01:14.225Z,10.47
2023-04-15T08:04:17.043Z,10.51
2023-04-15T08:07:19.376Z,10.46
2023-04-15T08:10:22.337Z,10.44
2023-04-15T08:13:24.653Z,10.62
2023-04-15T08:16:28.046Z,10.87
2023-04-15T08:19:30.871Z,11.15
2023-04-15T08:22:33.356Z,10.99
2023-04-15T08:25:35.480Z,10.80
2023-04-15T08:28:39.904Z,10.51
2023-04-15T08:31:42.380Z,10.38
2023-04-15T08:34:44.802Z,10.22
2023-04-15T08:37:46.912Z,10.25
2023-04-15T08:40:49.800Z,10.22
2023-04-15T08:44:12.688Z,10.52
2023-04-15T08:47:20.861Z,11.11
2023-04-15T08:50:26.308Z,11.34
2023-04-15T08:53:30.537Z,11.37
2023-04-15T08:56:33.261Z,11.34
2023-04-15T08:59:35.803Z,11.23
2023-04-15T09:02:39.281Z,11.27
2023-04-15T09:05:42.282Z,11.01
2023-04-15T09:08:44.892Z,11.00
2023-04-15T09:11:47.402Z,10.96
2023-04-15T09:14:49.928Z,11.29
2023-04-15T09:17:52.439Z,11.33
2023-04-15T09:20:54.860Z,11.18
2023-04-15T09:23:59.814Z,11.00
2023-04-15T09:27:02.520Z,11.10
2023-04-15T09:30:08.896Z,11.20
2023-04-15T09:33:14.599Z,11.21
2023-04-15T09:36:17.041Z,10.95
2023-04-15T09:39:19.369Z,11.15
2023-04-15T09:42:24.606Z,11.31
2023-04-15T09:45:29.542Z,11.34
2023-04-15T09:48:32.321Z,11.28
2023-04-15T09:51:38.173Z,10.99
2023-04-15T09:54:40.563Z,11.06
2023-04-15T09:57:44.264Z,11.15
2023-04-15T10:00:48.885Z,11.23
2023-04-15T10:03:52.465Z,11.17
2023-04-15T10:06:54.667Z,11.04
2023-04-15T10:09:59.886Z,11.08
2023-04-15T10:13:02.663Z,11.09
2023-04-15T10:16:32.621Z,11.05
2023-04-15T10:19:37.420Z,10.97
2023-04-15T10:22:41.104Z,10.85
2023-04-15T10:25:43.608Z,10.74
2023-04-15T10:28:49.632Z,10.81
2023-04-15T10:31:52.542Z,10.93
2023-04-15T10:34:55.688Z,11.04
2023-04-15T10:37:58.015Z,11.22
2023-04-15T10:41:14.231Z,11.11
2023-04-15T10:44:16.692Z,11.03
2023-04-15T10:47:21.742Z,10.84
2023-04-15T10:50:28.153Z,10.72
2023-04-15T10:53:31.880Z,10.75
2023-04-15T10:56:34.023Z,10.80
2023-04-15T10:59:59.966Z,10.71
2023-04-15T11:03:09.988Z,10.79
2023-04-15T11:06:12.642Z,10.82
2023-04-15T11:09:34.513Z,10.84
2023-04-15T11:12:37.363Z,10.87
2023-04-15T11:15:41.860Z,10.76
2023-04-15T11:18:55.558Z,10.86
2023-04-15T11:21:57.749Z,10.88
2023-04-15T11:25:00.162Z,11.04
2023-04-15T11:28:02.598Z,11.20
2023-04-15T11:31:11.337Z,11.25
2023-04-15T11:34:22.914Z,11.17
2023-04-15T11:37:29.645Z,11.07
2023-04-15T11:40:33.472Z,11.23
2023-04-15T11:43:35.991Z,11.44
2023-04-15T11:46:38.098Z,11.30
2023-04-15T11:49:41.630Z,11.30
2023-04-15T11:52:58.966Z,11.30
2023-04-15T11:56:01.840Z,11.30
2023-04-15T11:59:04.451Z,11.30
2023-04-15T12:02:14.077Z,11.24
2023-04-15T12:05:16.841Z,11.35
2023-04-15T12:08:19.119Z,11.42
2023-04-15T12:11:27.346Z,11.54
2023-04-15T12:14:31.431Z,11.76
2023-04-15T12:17:51.527Z,11.61
2023-04-15T12:20:54.689Z,11.62
2023-04-15T12:23:58.122Z,11.74
2023-04-15T12:27:05.575Z,11.65
2023-04-15T12:30:08.966Z,11.61
2023-04-15T12:33:12.029Z,11.75
2023-04-15T12:36:14.507Z,11.85
2023-04-15T12:39:16.696Z,11.73
2023-04-15T12:42:19.444Z,11.75
2023-04-15T12:45:22.140Z,11.64
2023-04-15T12:48:24.676Z,11.50
2023-04-15T12:51:27.418Z,11.25
2023-04-15T12:54:31.410Z,11.26
2023-04-15T12:57:33.635Z,11.31
2023-04-15T13:00:36.066Z,11.49
2023-04-15T13:03:38.707Z,11.62
2023-04-15T13:06:41.429Z,11.77
2023-04-15T13:09:44.026Z,11.50
2023-04-15T13:12:47.015Z,11.50
2023-04-15T13:15:49.459Z,11.53
2023-04-15T13:18:51.976Z,11.54
2023-04-15T13:21:54.224Z,11.51
2023-04-15T13:24:56.686Z,11.45
2023-04-15T13:27:58.976Z,11.41
2023-04-15T13:31:01.497Z,11.31
2023-04-15T13:34:03.999Z,11.42
2023-04-15T13:37:08.193Z,11.47
2023-04-15T13:40:10.875Z,11.63
2023-04-15T13:43:13.324Z,11.71
2023-04-15T13:46:15.581Z,11.60
2023-04-15T13:49:18.198Z,11.63
2023-04-15T13:52:20.342Z,11.63
2023-04-15T13:55:25.282Z,11.68
2023-04-15T13:58:28.315Z,11.67
2023-04-15T14:01:31.130Z,11.66
2023-04-15T14:04:33.903Z,11.75
2023-04-15T14:07:36.576Z,11.73
2023-04-15T14:10:39.100Z,11.72
2023-04-15T14:13:41.291Z,11.79
2023-04-15T14:16:44.025Z,11.82
2023-04-15T14:19:46.288Z,11.76
2023-04-15T14:22:48.739Z,11.61
2023-04-15T14:25:51.993Z,11.47
2023-04-15T14:28:54.515Z,11.42
2023-04-15T14:32:11.483Z,11.37
2023-04-15T14:35:15.194Z,11.39
2023-04-15T14:38:17.438Z,11.40
2023-04-15T14:41:19.985Z,11.41
2023-04-15T14:44:22.432Z,11.46
2023-04-15T14:47:24.865Z,11.45
2023-04-15T14:50:27.155Z,11.37
2023-04-15T14:53:29.624Z,11.42
2023-04-15T14:56:31.923Z,11.46
2023-04-15T14:59:34.425Z,11.44
2023-04-15T15:02:39.654Z,11.37
2023-04-15T15:05:45.180Z,11.35
2023-04-15T15:08:47.389Z,11.35
2023-04-15T15:11:49.964Z,11.37
2023-04-15T15:14:52.175Z,11.39
2023-04-15T15:17:54.708Z,11.36
2023-04-15T15:20:57.166Z,11.32
2023-04-15T15:23:59.566Z,11.24
2023-04-15T15:27:02.874Z,11.27
2023-04-15T15:30:07.120Z,11.22
2023-04-15T15:33:09.385Z,11.25
2023-04-15T15:36:12.114Z,11.25
2023-04-15T15:39:14.352Z,11.26
2023-04-15T15:42:18.617Z,11.17
2023-04-15T15:45:20.883Z,11.15
2023-04-15T15:48:23.951Z,11.08
2023-04-15T15:51:27.492Z,11.06
2023-04-15T15:54:29.988Z,11.09
2023-04-15T15:57:32.283Z,11.04
2023-04-15T16:00:34.854Z,10.87
2023-04-15T16:03:37.511Z,10.72
2023-04-15T16:06:40.672Z,10.51
2023-04-15T16:09:43.675Z,10.47
2023-04-15T16:12:45.841Z,10.41
2023-04-15T16:15:50.247Z,10.16
2023-04-15T16:18:52.356Z,10.14
2023-04-15T16:21:54.868Z,10.10
2023-04-15T16:24:57.140Z,10.18
2023-04-15T16:28:06.057Z,10.23
2023-04-15T16:31:13.899Z,10.16
2023-04-15T16:34:17.460Z,10.18
2023-04-15T16:37:21.072Z,10.27
2023-04-15T16:40:23.687Z,10.26
2023-04-15T16:43:26.184Z,10.23
2023-04-15T16:46:29.571Z,10.23
2023-04-15T16:49:31.805Z,10.19
2023-04-15T16:52:34.385Z,10.14
2023-04-15T16:55:36.533Z,10.14
2023-04-15T16:58:39.041Z,10.20
2023-04-15T17:01:41.401Z,10.15
2023-04-15T17:04:43.878Z,10.04
2023-04-15T17:07:46.016Z,10.04
2023-04-15T17:10:48.625Z,9.98
2023-04-15T17:13:51.016Z,9.95
2023-04-15T17:16:53.471Z,9.83
2023-04-15T17:19:55.700Z,9.76
2023-04-15T17:22:58.622Z,9.82
2023-04-15T17:26:00.878Z,9.74
2023-04-15T17:29:03.777Z,9.72
2023-04-15T17:32:06.180Z,9.67
2023-04-15T17:35:09.101Z,9.60
2023-04-15T17:38:11.259Z,9.57
2023-04-15T17:41:13.817Z,9.49
2023-04-15T17:44:15.986Z,9.44
2023-04-15T17:47:18.426Z,9.32
2023-04-15T17:50:20.693Z,9.29
2023-04-15T17:53:23.179Z,9.23
2023-04-15T17:56:27.004Z,9.21
2023-04-15T17:59:30.891Z,9.17
2023-04-15T18:02:36.117Z,9.14
2023-04-15T18:05:40.842Z,9.13
2023-04-15T18:08:44.664Z,9.10
2023-04-15T18:11:48.376Z,9.03
2023-04-15T18:14:50.510Z,8.99
2023-04-15T18:17:53.028Z,8.97
2023-04-15T18:20:55.252Z,8.97
2023-04-15T18:23:57.682Z,8.89
2023-04-15T18:26:59.923Z,8.90
2023-04-15T18:30:02.483Z,8.94
2023-04-15T18:33:04.885Z,8.98
2023-04-15T18:36:07.458Z,9.00
2023-04-15T18:39:09.791Z,8.97
2023-04-15T18:42:12.291Z,9.01
2023-04-15T18:45:14.498Z,8.95
2023-04-15T18:48:17.536Z,8.86
2023-04-15T18:51:19.747Z,8.80
2023-04-15T18:54:22.162Z,8.75
2023-04-15T18:57:34.878Z,8.66
2023-04-15T19:00:41.603Z,8.61
2023-04-15T19:03:43.923Z,8.50
2023-04-15T19:06:49.378Z,8.47
2023-04-15T19:09:51.601Z,8.40
2023-04-15T19:12:55.041Z,8.41
2023-04-15T19:15:57.160Z,8.29
2023-04-15T19:18:59.666Z,8.31
2023-04-15T19:22:03.286Z,8.24
2023-04-15T19:25:06.292Z,8.24
2023-04-15T19:28:08.481Z,8.23
2023-04-15T19:31:11.269Z,8.23
2023-04-15T19:34:13.587Z,8.20
2023-04-15T19:37:16.180Z,8.17
2023-04-15T19:40:18.431Z,8.01
2023-04-15T19:43:20.935Z,7.99
2023-04-15T19:46:23.458Z,8.05
2023-04-15T19:49:26.640Z,8.05
2023-04-15T19:52:29.162Z,8.04
2023-04-15T19:55:31.966Z,8.02
2023-04-15T19:58:34.183Z,8.03
2023-04-15T20:01:36.683Z,7.88
2023-04-15T20:04:39.549Z,7.91
2023-04-15T20:07:47.617Z,7.95
2023-04-15T20:10:50.057Z,7.96
2023-04-15T20:13:52.212Z,7.99
2023-04-15T20:16:54.618Z,8.00
2023-04-15T20:19:56.723Z,7.97
2023-04-15T20:22:59.157Z,8.01
2023-04-15T20:26:01.438Z,8.02
2023-04-15T20:29:04.136Z,8.01
2023-04-15T20:32:06.761Z,7.96
2023-04-15T20:35:09.522Z,8.02
2023-04-15T20:38:11.962Z,8.00
2023-04-15T20:41:15.454Z,8.05
2023-04-15T20:44:17.607Z,8.05
2023-04-15T20:47:20.389Z,8.02
2023-04-15T20:50:22.552Z,8.02
2023-04-15T20:53:24.935Z,7.97
2023-04-15T20:56:27.039Z,8.00
2023-04-15T20:59:29.935Z,8.02
2023-04-15T21:02:32.324Z,7.96
2023-04-15T21:05:34.799Z,7.99
2023-04-15T21:08:36.949Z,7.94
2023-04-15T21:11:57.232Z,7.91
2023-04-15T21:15:01.751Z,7.84
2023-04-15T21:18:04.258Z,7.77
2023-04-15T21:21:06.442Z,7.76
2023-04-15T21:24:08.994Z,7.66
2023-04-15T21:27:11.118Z,7.63
2023-04-15T21:30:13.545Z,7.59
2023-04-15T21:33:16.642Z,7.52
2023-04-15T21:36:19.136Z,7.51
2023-04-15T21:39:21.488Z,7.54
2023-04-15T21:42:23.919Z,7.48
2023-04-15T21:45:26.361Z,7.48
2023-04-15T21:48:29.012Z,7.55
2023-04-15T21:51:31.499Z,7.53
2023-04-15T21:54:34.296Z,7.53
2023-04-15T21:57:36.472Z,7.58
2023-04-15T22:00:40.862Z,7.47
2023-04-15T22:03:43.856Z,7.50
2023-04-15T22:06:46.864Z,7.47
2023-04-15T22:09:50.075Z,7.48
2023-04-15T22:12:52.252Z,7.49
2023-04-15T22:15:54.802Z,7.46
2023-04-15T22:18:57.028Z,7.41
2023-04-15T22:21:59.673Z,7.45
2023-04-15T22:25:01.884Z,7.42
2023-04-15T22:28:07.800Z,7.42
2023-04-15T22:31:10.106Z,7.42
2023-04-15T22:34:14.783Z,7.41
2023-04-15T22:37:16.935Z,7.39
2023-04-15T22:40:19.361Z,7.31
2023-04-15T22:43:21.796Z,7.25
2023-04-15T22:46:24.315Z,7.24
2023-04-15T22:49:26.935Z,7.35
2023-04-15T22:52:31.058Z,7.45
2023-04-15T22:55:33.630Z,7.50
2023-04-15T22:58:36.098Z,7.53
2023-04-15T23:01:38.344Z,7.46
2023-04-15T23:04:41.091Z,7.50
2023-04-15T23:07:43.388Z,7.55
2023-04-15T23:10:46.394Z,7.50
2023-04-15T23:13:50.525Z,7.50
2023-04-15T23:16:52.993Z,7.49
2023-04-15T23:19:55.156Z,7.56
2023-04-15T23:22:57.642Z,7.59
2023-04-15T23:26:01.311Z,7.68
2023-04-15T23:29:03.807Z,7.70
2023-04-15T23:32:06.534Z,7.72
2023-04-15T23:35:09.446Z,7.67
2023-04-15T23:38:11.643Z,7.66
2023-04-15T23:41:14.087Z,7.70
2023-04-15T23:44:16.318Z,7.70
2023-04-15T23:47:18.796Z,7.66
2023-04-15T23:50:21.072Z,7.70
2023-04-15T23:53:23.533Z,7.66
2023-04-15T23:56:25.689Z,7.56
2023-04-15T23:59:28.199Z,7.51
